CYFC

Fredericton Airport

Code ICAO CYFC
Code IATA YFC
Nom Fredericton Airport
Emplacement Fredericton, New Brunswick, CA
Élévation 68 pieds / 20.7 mètres
Latitude 45.86890030
Longitude -66.53720093
METAR CYFC 240500Z AUTO 28003KT 230V310 9SM OVC086 M07/M14 A2978 RMK ICE SLP086
Informations extras Afficher cartes et CFS
Afficher NOTAMS
Piste Longueur Largeur Surface Élévation
09 8005 ft 200 ft ASP 64 ft
15 6000 ft 200 ft ASP 53 ft
27 8005 ft 200 ft ASP 57 ft
33 6000 ft 200 ft ASP 57 ft